CheckWX is a tool to help pilots better visualize weather data.  It is not intended as a substitute for an official pre-flight weather briefing.

08:36:16 UTC

KLIT METAR
Bill and Hillary Clinton National / Adams Field Airport
Little Rock, Arkansas, USA
Current

43 mins ago

KLIT 170753Z 22005KT 5SM BR BKN005 26/25 A2998 RMK AO2 SLP150 T02560250
Observed
Jul-17 @ 07:53 UTC
Wind
  • 220° at 5 KTS
Visibility
5 SM
Flight Rules
IFR
Conditions
Mist
Cloud Levels
  • Broken at 500' AGL
Temperature
26°C / 79°F
Dewpoint
25°C / 77°F
Humidity
94%
Altimeter
29.98" Hg
Pressure
1015.22 hPa
Previous

1 hour ago

KLIT 170707Z 19003KT 4SM BR BKN005 25/25 A2998 RMK AO2 T02500250
Observed
Jul-17 @ 07:07 UTC
Wind
  • 190° at 3 KTS
Visibility
4 SM
Flight Rules
IFR
Conditions
Mist
Cloud Levels
  • Broken at 500' AGL
Temperature
25°C / 77°F
Dewpoint
25°C / 77°F
Humidity
100%
Altimeter
29.98" Hg
Pressure
1015.22 hPa
Previous

2 hours ago

KLIT 170653Z 19003KT 3SM BR OVC003 25/25 A2998 RMK AO2 SLP152 T02500250
Observed
Jul-17 @ 06:53 UTC
Wind
  • 190° at 3 KTS
Visibility
3 SM
Flight Rules
LIFR
Conditions
Mist
Cloud Levels
  • Overcast at 300' AGL
Temperature
25°C / 77°F
Dewpoint
25°C / 77°F
Humidity
100%
Altimeter
29.98" Hg
Pressure
1015.22 hPa